Time;durP1;ratioP1;P1;durP2;ratioP2;P2;SDS_P1;SDS_P2;PMS_P1;PMS_P2;Temp;Humidity;BMP_temperature;BMP_pressure;BME280_temperature;BME280_humidity;BME280_pressure;Samples;Min_cycle;Max_cycle;Signal;HPM_P1;HPM_P2
2021/06/26 00:00:13;;;;;;;13.25;10.00;;;18.10;99.90;;;;;;2106272;28;20028;-70
2021/06/26 00:01:14;;;;;;;14.02;12.13;;;18.10;99.90;;;;;;2105919;28;20142;-70
2021/06/26 00:02:15;;;;;;;13.25;11.13;;;18.10;99.90;;;;;;2106306;28;20020;-70
2021/06/26 00:03:15;;;;;;;12.93;10.00;;;18.10;99.90;;;;;;2114394;28;20031;-70
2021/06/26 00:04:16;;;;;;;12.23;10.13;;;18.10;99.90;;;;;;2106792;28;20048;-70
2021/06/26 00:05:16;;;;;;;10.20;9.20;;;18.10;99.90;;;;;;2106903;28;20391;-70
2021/06/26 00:06:17;;;;;;;10.07;9.07;;;18.10;99.90;;;;;;2107031;28;20031;-71
2021/06/26 00:07:18;;;;;;;10.63;9.52;;;18.10;99.90;;;;;;2107162;28;20039;-70
2021/06/26 00:08:18;;;;;;;9.88;8.88;;;18.10;99.90;;;;;;2107014;28;20147;-70
2021/06/26 00:09:19;;;;;;;10.57;9.50;;;18.10;99.90;;;;;;2107565;28;20047;-70
2021/06/26 00:10:19;;;;;;;10.98;9.60;;;18.10;99.90;;;;;;2105740;28;20027;-70
2021/06/26 00:11:22;;;;;;;10.32;9.23;;;18.10;99.90;;;;;;2098149;28;20550;-70
2021/06/26 00:12:23;;;;;;;10.00;9.00;;;18.10;99.90;;;;;;2106799;28;20028;-70
2021/06/26 00:13:24;;;;;;;10.00;9.00;;;18.10;99.90;;;;;;2106553;28;20626;-70
2021/06/26 00:14:25;;;;;;;10.00;8.98;;;18.10;99.90;;;;;;2105352;28;20136;-70
2021/06/26 00:15:26;;;;;;;8.98;8.18;;;18.10;99.90;;;;;;2097612;28;20077;-70
2021/06/26 00:16:26;;;;;;;10.45;8.70;;;18.10;99.90;;;;;;2105813;28;20020;-69
2021/06/26 00:17:27;;;;;;;8.88;8.07;;;18.10;99.90;;;;;;2106473;28;20024;-69
2021/06/26 00:18:28;;;;;;;13.35;10.40;;;18.00;99.90;;;;;;2105744;28;20020;-70
2021/06/26 00:19:28;;;;;;;13.73;10.20;;;18.10;99.90;;;;;;2105741;28;20035;-70
2021/06/26 00:20:29;;;;;;;15.32;10.60;;;18.00;99.90;;;;;;2106601;28;20039;-70
2021/06/26 00:21:29;;;;;;;10.80;9.70;;;18.00;99.90;;;;;;2106212;28;20069;-70
2021/06/26 00:22:30;;;;;;;13.35;9.75;;;18.00;99.90;;;;;;2105932;28;20890;-70
2021/06/26 00:23:31;;;;;;;11.32;9.13;;;18.00;99.90;;;;;;2105997;28;20099;-70
2021/06/26 00:24:31;;;;;;;12.27;9.50;;;18.00;99.90;;;;;;2114363;28;20457;-70
2021/06/26 00:25:32;;;;;;;10.38;9.38;;;18.00;99.90;;;;;;2114858;28;20107;-69
2021/06/26 00:26:33;;;;;;;13.98;9.68;;;18.00;99.90;;;;;;2112631;28;20015;-70
2021/06/26 00:27:34;;;;;;;10.32;9.05;;;18.00;99.90;;;;;;2107076;28;20067;-70
2021/06/26 00:28:35;;;;;;;11.82;9.57;;;18.00;99.90;;;;;;2107077;28;20081;-70
2021/06/26 00:29:35;;;;;;;11.00;9.13;;;18.00;99.90;;;;;;2107723;28;20020;-70
2021/06/26 00:30:36;;;;;;;12.35;9.82;;;18.00;99.90;;;;;;2106731;28;20115;-70
2021/06/26 00:31:37;;;;;;;10.23;8.82;;;18.00;99.90;;;;;;2107385;28;20644;-69
2021/06/26 00:32:38;;;;;;;10.27;9.18;;;18.00;99.90;;;;;;2106790;28;20086;-69
2021/06/26 00:33:38;;;;;;;11.60;9.50;;;18.00;99.90;;;;;;2106366;28;20055;-70
2021/06/26 00:34:39;;;;;;;11.00;9.50;;;18.00;99.80;;;;;;2114942;28;20072;-70
2021/06/26 00:35:40;;;;;;;10.68;9.57;;;18.00;99.90;;;;;;2113448;28;20085;-69
2021/06/26 00:36:40;;;;;;;9.77;8.77;;;18.00;99.80;;;;;;2114884;28;20031;-69
2021/06/26 00:37:42;;;;;;;9.27;8.35;;;18.00;99.90;;;;;;2104745;28;20036;-69
2021/06/26 00:38:43;;;;;;;10.27;9.27;;;18.00;99.90;;;;;;2106567;28;20024;-69
2021/06/26 00:39:43;;;;;;;9.32;8.32;;;18.00;99.90;;;;;;2112211;28;20031;-69
2021/06/26 00:40:44;;;;;;;9.85;8.85;;;18.00;99.90;;;;;;2106704;28;20020;-70
2021/06/26 00:41:44;;;;;;;9.93;8.77;;;18.00;99.90;;;;;;2107616;28;20027;-70
2021/06/26 00:42:46;;;;;;;11.00;8.82;;;18.10;99.90;;;;;;2108122;28;20081;-69
2021/06/26 00:43:46;;;;;;;10.50;9.40;;;18.00;99.90;;;;;;2108885;28;20016;-70
2021/06/26 00:44:47;;;;;;;9.95;9.00;;;18.00;99.90;;;;;;2109626;28;20568;-70
2021/06/26 00:45:49;;;;;;;9.05;8.15;;;18.00;99.90;;;;;;2109950;28;20030;-69
2021/06/26 00:46:49;;;;;;;10.05;9.05;;;18.00;99.90;;;;;;2109286;28;20467;-69
2021/06/26 00:47:50;;;;;;;10.30;9.30;;;18.00;99.90;;;;;;2107379;28;20034;-70
2021/06/26 00:48:50;;;;;;;9.75;8.75;;;18.00;99.90;;;;;;2110654;28;20024;-70
2021/06/26 00:49:51;;;;;;;10.65;9.55;;;18.00;99.90;;;;;;2115644;28;20413;-70
2021/06/26 00:50:52;;;;;;;9.95;8.93;;;18.00;99.90;;;;;;2114326;28;20494;-69
2021/06/26 00:51:53;;;;;;;10.55;9.45;;;18.00;99.90;;;;;;2105665;28;20028;-69
2021/06/26 00:52:53;;;;;;;10.95;9.60;;;18.00;99.90;;;;;;2106556;28;20059;-69
2021/06/26 00:53:54;;;;;;;10.18;8.73;;;18.00;99.70;;;;;;2111437;28;20569;-70
2021/06/26 00:54:55;;;;;;;10.13;9.10;;;18.00;99.60;;;;;;2105720;28;20171;-69
2021/06/26 00:55:56;;;;;;;11.38;8.90;;;18.00;99.60;;;;;;2106403;28;20024;-71
2021/06/26 00:56:57;;;;;;;9.65;8.65;;;18.00;99.50;;;;;;2115458;28;20024;-68
2021/06/26 00:58:00;;;;;;;9.55;8.45;;;18.00;99.50;;;;;;2110946;28;20028;-69
2021/06/26 00:59:02;;;;;;;9.07;7.78;;;18.00;99.40;;;;;;2107348;28;20043;-70
2021/06/26 01:00:05;;;;;;;10.27;9.15;;;18.00;99.40;;;;;;2111978;28;20020;-69
2021/06/26 01:01:06;;;;;;;8.90;8.00;;;18.00;99.20;;;;;;2115093;28;20410;-69
2021/06/26 01:02:08;;;;;;;9.23;8.20;;;18.00;99.20;;;;;;2115086;28;20110;-69
2021/06/26 01:03:09;;;;;;;9.73;8.82;;;18.00;99.30;;;;;;2108955;28;20505;-70
2021/06/26 01:04:10;;;;;;;11.80;9.27;;;18.00;99.20;;;;;;2105457;28;20036;-70
2021/06/26 01:05:11;;;;;;;10.07;8.80;;;18.00;99.20;;;;;;2105259;28;20103;-70
2021/06/26 01:06:14;;;;;;;9.57;8.63;;;18.00;99.20;;;;;;2108817;28;20027;-70
2021/06/26 01:07:15;;;;;;;9.93;8.93;;;18.00;99.20;;;;;;2105655;28;20028;-70
2021/06/26 01:08:15;;;;;;;10.35;9.20;;;17.90;99.10;;;;;;2105646;28;20483;-70
2021/06/26 01:09:16;;;;;;;10.15;9.15;;;18.00;99.10;;;;;;2114662;28;20051;-70
2021/06/26 01:10:17;;;;;;;9.48;8.57;;;18.00;99.00;;;;;;2108241;28;20090;-71
2021/06/26 01:11:18;;;;;;;9.30;8.18;;;18.00;99.10;;;;;;2105569;28;20035;-70
2021/06/26 01:12:18;;;;;;;11.35;8.40;;;18.00;99.10;;;;;;2106199;28;20028;-70
2021/06/26 01:13:19;;;;;;;8.50;7.68;;;18.00;99.10;;;;;;2111958;28;20034;-70
2021/06/26 01:14:20;;;;;;;10.10;7.65;;;18.00;99.20;;;;;;2114292;28;20110;-71
2021/06/26 01:15:21;;;;;;;8.65;7.63;;;18.00;99.10;;;;;;2108437;28;20058;-70
2021/06/26 01:16:24;;;;;;;9.35;8.38;;;18.00;99.00;;;;;;2105672;28;20024;-70
2021/06/26 01:17:25;;;;;;;10.45;8.32;;;18.00;99.00;;;;;;2106112;28;20229;-70
2021/06/26 01:18:26;;;;;;;9.38;8.18;;;18.00;99.00;;;;;;2112911;28;20147;-70
2021/06/26 01:19:26;;;;;;;8.35;7.65;;;18.00;99.10;;;;;;2096994;28;20043;-70
2021/06/26 01:20:27;;;;;;;9.52;7.65;;;18.00;99.10;;;;;;2097125;28;20046;-70
2021/06/26 01:21:29;;;;;;;8.98;8.02;;;18.00;99.10;;;;;;2105371;28;20059;-69
2021/06/26 01:22:33;;;;;;;9.82;8.15;;;18.00;99.10;;;;;;2106224;28;20177;-69
2021/06/26 01:23:34;;;;;;;9.13;7.82;;;18.00;99.10;;;;;;2105197;28;20024;-69
2021/06/26 01:24:37;;;;;;;9.15;8.10;;;18.00;99.00;;;;;;2104864;28;20514;-70
2021/06/26 01:25:40;;;;;;;11.68;8.25;;;18.00;99.00;;;;;;2089332;28;20032;-70
2021/06/26 01:26:41;;;;;;;8.52;7.63;;;18.00;99.10;;;;;;2105736;28;20028;-70
2021/06/26 01:27:43;;;;;;;8.63;7.82;;;18.00;99.10;;;;;;2113872;28;20503;-70
2021/06/26 01:28:43;;;;;;;9.35;8.35;;;18.00;99.00;;;;;;2106162;28;20046;-70
2021/06/26 01:29:49;;;;;;;10.48;8.73;;;18.00;98.90;;;;;;2105760;28;20107;-70
2021/06/26 01:30:50;;;;;;;9.38;8.32;;;18.00;99.00;;;;;;2105593;28;20031;-70
2021/06/26 01:31:50;;;;;;;9.40;8.50;;;18.00;98.90;;;;;;2105277;28;20031;-70
2021/06/26 01:32:51;;;;;;;11.45;8.52;;;18.00;99.10;;;;;;2105370;28;20630;-70
2021/06/26 01:33:52;;;;;;;8.82;7.97;;;18.00;99.20;;;;;;2107667;28;20036;-70
2021/06/26 01:34:52;;;;;;;9.05;8.10;;;18.00;99.30;;;;;;2104664;28;20036;-70
2021/06/26 01:35:53;;;;;;;9.38;8.30;;;18.00;99.40;;;;;;2101208;28;20032;-70
2021/06/26 01:36:53;;;;;;;9.05;8.23;;;18.00;99.40;;;;;;2105944;28;20035;-70
2021/06/26 01:37:55;;;;;;;9.23;8.15;;;18.00;99.60;;;;;;2107569;28;20020;-70
2021/06/26 01:38:58;;;;;;;9.65;8.27;;;18.00;99.70;;;;;;2105229;28;20032;-69
2021/06/26 01:39:58;;;;;;;9.95;8.40;;;18.00;99.60;;;;;;2097024;28;20036;-69
2021/06/26 01:40:59;;;;;;;9.15;8.25;;;17.90;99.60;;;;;;2104646;28;20038;-69
2021/06/26 01:42:00;;;;;;;9.40;8.38;;;18.00;99.60;;;;;;2114321;28;20036;-69
2021/06/26 01:43:00;;;;;;;9.10;8.20;;;17.90;99.60;;;;;;2111033;28;20051;-69
2021/06/26 01:44:02;;;;;;;9.50;8.15;;;17.90;99.70;;;;;;2105878;28;20101;-69
2021/06/26 01:45:03;;;;;;;8.80;7.60;;;17.90;99.90;;;;;;2105408;28;20020;-70
2021/06/26 01:46:04;;;;;;;9.35;8.35;;;17.90;99.70;;;;;;2105808;28;20020;-69
2021/06/26 01:47:08;;;;;;;9.73;8.43;;;17.90;99.60;;;;;;2109171;28;20027;-69
2021/06/26 01:48:09;;;;;;;8.52;7.72;;;17.90;99.40;;;;;;2114293;28;20019;-70
2021/06/26 01:49:12;;;;;;;11.25;8.15;;;17.90;99.40;;;;;;2114054;28;20415;-69
2021/06/26 01:50:16;;;;;;;9.43;8.43;;;17.90;99.40;;;;;;2104961;28;20626;-70
2021/06/26 01:51:16;;;;;;;8.85;8.05;;;17.90;99.30;;;;;;2104440;28;20157;-68
2021/06/26 01:52:17;;;;;;;8.85;7.95;;;17.90;99.40;;;;;;2104739;28;20054;-70
2021/06/26 01:53:18;;;;;;;9.63;8.20;;;17.90;99.40;;;;;;2105815;28;20063;-69
2021/06/26 01:54:19;;;;;;;10.93;7.88;;;17.90;99.30;;;;;;2104998;28;20017;-70
2021/06/26 01:55:22;;;;;;;8.68;7.78;;;17.90;99.40;;;;;;2105153;28;20115;-70
2021/06/26 01:56:22;;;;;;;12.43;8.43;;;17.90;99.30;;;;;;2105221;28;20040;-70
2021/06/26 01:57:23;;;;;;;9.63;8.40;;;17.90;99.20;;;;;;2097032;28;20418;-70
2021/06/26 01:58:24;;;;;;;9.80;8.60;;;17.90;99.10;;;;;;2105242;28;20020;-70
2021/06/26 01:59:25;;;;;;;9.27;8.38;;;17.90;99.10;;;;;;2104945;28;20032;-70
2021/06/26 02:00:26;;;;;;;10.07;8.20;;;17.90;99.10;;;;;;2105126;28;20016;-70
2021/06/26 02:01:26;;;;;;;10.05;8.15;;;17.90;99.10;;;;;;2104688;28;20050;-69
2021/06/26 02:02:27;;;;;;;10.18;7.93;;;17.90;99.20;;;;;;2105588;28;20035;-70
2021/06/26 02:03:28;;;;;;;9.02;8.13;;;17.90;99.20;;;;;;2106393;28;20097;-70
2021/06/26 02:04:28;;;;;;;9.40;7.90;;;17.90;99.10;;;;;;2105885;28;20028;-70
2021/06/26 02:05:29;;;;;;;10.93;8.23;;;17.90;99.10;;;;;;2109148;28;20063;-70
2021/06/26 02:06:30;;;;;;;10.40;8.32;;;17.90;99.30;;;;;;2102453;28;20035;-70
2021/06/26 02:07:31;;;;;;;10.02;8.40;;;17.90;99.20;;;;;;2097011;28;20054;-70
2021/06/26 02:08:32;;;;;;;9.95;7.97;;;17.90;99.20;;;;;;2105660;28;20555;-70
2021/06/26 02:09:32;;;;;;;9.52;8.20;;;17.90;99.20;;;;;;2114516;28;20071;-70
2021/06/26 02:10:33;;;;;;;9.25;8.30;;;17.90;99.10;;;;;;2114222;28;20595;-70
2021/06/26 02:11:34;;;;;;;9.95;8.00;;;17.90;99.10;;;;;;2108496;28;20019;-69
2021/06/26 02:12:35;;;;;;;8.55;7.75;;;17.90;99.00;;;;;;2105730;28;20031;-69
2021/06/26 02:13:36;;;;;;;8.40;7.60;;;17.90;99.10;;;;;;2106019;28;20597;-70
2021/06/26 02:14:36;;;;;;;9.07;8.18;;;17.90;99.20;;;;;;2104534;28;20044;-70
2021/06/26 02:15:37;;;;;;;9.00;8.10;;;17.90;99.20;;;;;;2105499;28;20130;-69
2021/06/26 02:16:39;;;;;;;8.75;7.85;;;17.90;99.30;;;;;;2114803;28;20500;-70
2021/06/26 02:17:39;;;;;;;9.77;8.52;;;17.90;99.50;;;;;;2115063;28;20015;-69
2021/06/26 02:18:40;;;;;;;7.93;7.22;;;17.90;99.50;;;;;;2108763;28;20032;-71
2021/06/26 02:19:40;;;;;;;8.38;7.57;;;17.90;99.60;;;;;;2106610;28;20031;-69
2021/06/26 02:20:41;;;;;;;8.43;7.55;;;17.90;99.60;;;;;;2112159;28;20019;-71
2021/06/26 02:21:42;;;;;;;9.23;7.88;;;17.90;99.60;;;;;;2107497;28;20052;-69
2021/06/26 02:22:43;;;;;;;8.75;7.68;;;17.90;99.70;;;;;;2104909;28;20129;-70
2021/06/26 02:23:43;;;;;;;8.48;7.68;;;17.90;99.70;;;;;;2104662;28;20082;-71
2021/06/26 02:24:44;;;;;;;9.30;8.40;;;17.90;99.70;;;;;;2113271;28;20111;-70
2021/06/26 02:25:44;;;;;;;9.35;8.40;;;17.90;99.70;;;;;;2107210;28;20051;-70
2021/06/26 02:26:45;;;;;;;8.48;7.68;;;17.90;99.80;;;;;;2105594;28;20433;-70
2021/06/26 02:27:46;;;;;;;8.55;7.75;;;17.90;99.80;;;;;;2105500;28;20552;-70
2021/06/26 02:28:46;;;;;;;9.75;8.73;;;17.90;99.80;;;;;;2112292;28;20051;-70
2021/06/26 02:29:47;;;;;;;8.68;7.88;;;17.90;99.70;;;;;;2113800;28;20023;-69
2021/06/26 02:30:48;;;;;;;11.77;8.05;;;17.90;99.60;;;;;;2106411;28;20043;-70
2021/06/26 02:31:48;;;;;;;9.80;8.10;;;17.90;99.60;;;;;;2112098;28;20548;-71
2021/06/26 02:32:49;;;;;;;9.80;8.38;;;17.90;99.70;;;;;;2113863;28;20034;-70
2021/06/26 02:33:49;;;;;;;10.40;8.93;;;17.90;99.80;;;;;;2113887;28;20130;-71
2021/06/26 02:34:53;;;;;;;9.13;8.25;;;17.90;99.80;;;;;;2103927;28;20024;-69
2021/06/26 02:35:53;;;;;;;10.05;8.95;;;17.90;99.90;;;;;;2098856;28;20020;-70
2021/06/26 02:36:54;;;;;;;13.73;9.15;;;17.90;99.90;;;;;;2104106;28;20468;-70
2021/06/26 02:37:54;;;;;;;9.77;8.77;;;18.00;99.90;;;;;;2105465;28;20103;-70
2021/06/26 02:38:55;;;;;;;9.63;8.60;;;18.00;99.90;;;;;;2112840;28;20767;-70
2021/06/26 02:39:56;;;;;;;10.55;9.20;;;18.00;99.90;;;;;;2106070;28;20055;-70
2021/06/26 02:40:56;;;;;;;10.13;8.25;;;18.00;99.90;;;;;;2105069;28;20073;-70
2021/06/26 02:41:57;;;;;;;10.43;8.90;;;18.00;99.90;;;;;;2104653;28;20056;-70
2021/06/26 02:42:58;;;;;;;11.73;8.70;;;17.90;99.80;;;;;;2095914;28;20085;-70
2021/06/26 02:43:59;;;;;;;10.60;8.70;;;17.90;99.80;;;;;;2104860;28;20047;-70
2021/06/26 02:44:59;;;;;;;11.40;9.05;;;17.90;99.70;;;;;;2113626;28;20497;-70
2021/06/26 02:46:00;;;;;;;11.45;8.75;;;17.90;99.60;;;;;;2104701;28;20042;-69
2021/06/26 02:47:01;;;;;;;10.52;8.13;;;17.90;99.50;;;;;;2104996;28;20059;-70
2021/06/26 02:48:01;;;;;;;9.50;8.27;;;17.90;99.50;;;;;;2105484;28;20032;-69
2021/06/26 02:49:03;;;;;;;10.30;8.48;;;17.90;99.50;;;;;;2105311;28;20032;-69
2021/06/26 02:50:05;;;;;;;9.13;8.15;;;17.90;99.50;;;;;;2113676;28;20501;-70
2021/06/26 02:51:06;;;;;;;9.20;8.27;;;17.90;99.50;;;;;;2112892;28;20055;-70
2021/06/26 02:52:07;;;;;;;8.95;8.05;;;17.90;99.40;;;;;;2114056;28;20505;-69
2021/06/26 02:53:08;;;;;;;8.60;7.80;;;18.00;99.50;;;;;;2113647;28;20022;-69
2021/06/26 02:54:09;;;;;;;10.68;9.57;;;17.90;99.40;;;;;;2113822;28;20443;-70
2021/06/26 02:55:10;;;;;;;10.00;9.00;;;17.90;99.30;;;;;;2113421;28;20110;-70
2021/06/26 02:56:19;;;;;;;12.45;9.13;;;18.00;99.50;;;;;;2114583;28;20534;-72
2021/06/26 02:57:20;;;;;;;9.10;8.07;;;18.00;99.40;;;;;;2115357;28;20092;-70
2021/06/26 02:58:20;;;;;;;9.25;8.32;;;18.00;99.40;;;;;;2113940;28;20036;-70
2021/06/26 02:59:21;;;;;;;9.70;8.38;;;17.90;99.30;;;;;;2111490;28;20544;-71
2021/06/26 03:00:22;;;;;;;9.80;8.80;;;18.00;99.40;;;;;;2104816;28;20028;-71
2021/06/26 03:01:22;;;;;;;9.00;7.85;;;17.90;99.20;;;;;;2105128;28;20024;-71
2021/06/26 03:02:25;;;;;;;8.52;7.68;;;17.90;99.20;;;;;;2096259;28;20094;-69
2021/06/26 03:03:26;;;;;;;8.52;7.53;;;18.00;99.20;;;;;;2096703;28;20035;-69
2021/06/26 03:04:27;;;;;;;8.43;7.60;;;18.00;99.40;;;;;;2104295;28;20031;-70
2021/06/26 03:05:27;;;;;;;8.32;7.45;;;18.00;99.30;;;;;;2105529;28;20114;-69
2021/06/26 03:06:28;;;;;;;8.73;7.53;;;17.90;99.40;;;;;;2099131;28;21614;-69
2021/06/26 03:07:29;;;;;;;9.20;7.20;;;18.00;99.40;;;;;;2104176;28;20073;-69
2021/06/26 03:08:29;;;;;;;8.55;7.38;;;18.00;99.30;;;;;;2108469;28;20199;-69
2021/06/26 03:09:30;;;;;;;8.45;7.55;;;18.00;99.30;;;;;;2104786;28;20043;-69
2021/06/26 03:10:31;;;;;;;7.72;6.93;;;18.00;99.40;;;;;;2105487;28;20115;-70
2021/06/26 03:11:31;;;;;;;8.75;7.43;;;18.00;99.40;;;;;;2108719;28;20133;-69
2021/06/26 03:12:32;;;;;;;8.20;7.40;;;18.00;99.30;;;;;;2111033;28;20020;-69
2021/06/26 03:13:33;;;;;;;7.82;7.03;;;18.00;99.40;;;;;;2106395;28;20505;-70
2021/06/26 03:14:33;;;;;;;8.00;7.20;;;17.90;99.30;;;;;;2105777;28;20024;-70
2021/06/26 03:15:34;;;;;;;8.40;7.38;;;18.00;99.30;;;;;;2105844;28;20483;-70
2021/06/26 03:16:35;;;;;;;8.25;7.25;;;18.00;99.30;;;;;;2105518;28;20408;-70
2021/06/26 03:17:35;;;;;;;8.02;6.97;;;18.00;99.30;;;;;;2105491;28;20738;-70
2021/06/26 03:18:41;;;;;;;7.82;7.00;;;18.00;99.20;;;;;;2106206;28;20487;-70
2021/06/26 03:19:42;;;;;;;8.25;7.38;;;18.00;99.30;;;;;;2105500;28;20039;-70
2021/06/26 03:20:43;;;;;;;7.93;7.13;;;18.00;99.30;;;;;;2104748;28;20020;-70
2021/06/26 03:21:43;;;;;;;7.55;6.85;;;18.00;99.40;;;;;;2105313;28;20028;-70
2021/06/26 03:22:44;;;;;;;8.00;6.93;;;18.00;99.50;;;;;;2105260;28;20116;-69
2021/06/26 03:23:45;;;;;;;7.78;7.05;;;18.00;99.50;;;;;;2105238;28;20028;-70
2021/06/26 03:24:45;;;;;;;7.57;6.82;;;18.00;99.40;;;;;;2104892;28;20074;-70
2021/06/26 03:25:46;;;;;;;7.78;6.97;;;18.00;99.50;;;;;;2105106;28;20016;-69
2021/06/26 03:26:46;;;;;;;7.82;7.03;;;18.00;99.50;;;;;;2105133;28;20475;-70
2021/06/26 03:27:47;;;;;;;7.55;6.72;;;18.00;99.50;;;;;;2105037;28;20102;-69
2021/06/26 03:28:49;;;;;;;7.40;6.70;;;18.00;99.50;;;;;;2104463;28;20032;-70
2021/06/26 03:29:50;;;;;;;8.43;7.50;;;18.00;99.60;;;;;;2104769;28;20024;-70
2021/06/26 03:30:50;;;;;;;7.93;7.13;;;18.00;99.40;;;;;;2113089;28;20028;-70
2021/06/26 03:31:51;;;;;;;11.27;7.57;;;18.00;99.40;;;;;;2113502;28;20027;-70
2021/06/26 03:32:52;;;;;;;8.75;7.10;;;18.00;99.30;;;;;;2104475;28;20039;-70
2021/06/26 03:33:53;;;;;;;9.32;7.47;;;18.00;99.70;;;;;;2104700;28;20111;-70
2021/06/26 03:34:53;;;;;;;8.82;7.90;;;18.00;99.40;;;;;;2104734;28;20028;-70
2021/06/26 03:35:54;;;;;;;8.02;7.30;;;18.00;99.40;;;;;;2109137;28;20032;-69
2021/06/26 03:36:55;;;;;;;9.50;7.65;;;18.00;99.30;;;;;;2104726;28;20039;-70
2021/06/26 03:37:55;;;;;;;7.93;7.20;;;18.00;99.00;;;;;;2104763;28;20060;-70
2021/06/26 03:38:56;;;;;;;8.68;7.78;;;18.00;99.00;;;;;;2113805;28;20024;-70
2021/06/26 03:39:57;;;;;;;9.07;8.13;;;18.00;98.80;;;;;;2113755;28;20031;-70
2021/06/26 03:40:57;;;;;;;11.20;8.27;;;18.00;98.50;;;;;;2114121;28;20086;-69
2021/06/26 03:41:58;;;;;;;9.52;7.93;;;18.00;98.50;;;;;;2106636;28;20037;-70
2021/06/26 03:42:59;;;;;;;11.10;8.18;;;18.00;98.50;;;;;;2107472;28;20047;-69
2021/06/26 03:44:01;;;;;;;8.70;7.80;;;18.00;98.40;;;;;;2109492;28;20024;-69
2021/06/26 03:45:02;;;;;;;8.70;7.85;;;18.00;98.30;;;;;;2099719;28;20464;-70
2021/06/26 03:46:02;;;;;;;9.77;7.82;;;18.00;98.30;;;;;;2101014;28;20052;-69
2021/06/26 03:47:03;;;;;;;8.73;7.72;;;18.00;98.20;;;;;;2109004;28;20028;-69
2021/06/26 03:48:04;;;;;;;8.55;7.72;;;18.00;97.90;;;;;;2109590;28;20491;-69
2021/06/26 03:49:05;;;;;;;10.52;8.77;;;18.00;97.80;;;;;;2113618;28;20027;-69
2021/06/26 03:50:07;;;;;;;13.45;9.32;;;18.00;97.40;;;;;;2108723;28;20024;-69
2021/06/26 03:51:07;;;;;;;11.50;8.18;;;18.00;97.30;;;;;;2105538;28;20083;-69
2021/06/26 03:52:08;;;;;;;13.73;8.57;;;18.00;97.40;;;;;;2104724;28;20446;-69
2021/06/26 03:53:10;;;;;;;12.70;9.00;;;18.00;97.20;;;;;;2104795;28;20029;-69
2021/06/26 03:54:10;;;;;;;10.85;7.68;;;18.00;97.20;;;;;;2105376;28;20017;-69
2021/06/26 03:55:11;;;;;;;9.00;7.80;;;18.00;97.30;;;;;;2103983;28;20609;-69
2021/06/26 03:56:13;;;;;;;12.45;7.88;;;18.00;97.20;;;;;;2104354;28;20024;-69
2021/06/26 03:57:13;;;;;;;8.93;7.30;;;18.00;97.20;;;;;;2104803;28;20028;-69
2021/06/26 03:58:14;;;;;;;9.48;7.40;;;18.00;97.30;;;;;;2105194;28;20471;-70
2021/06/26 03:59:14;;;;;;;10.23;7.72;;;18.00;97.50;;;;;;2109066;28;20030;-69
2021/06/26 04:00:16;;;;;;;9.23;7.30;;;18.00;97.40;;;;;;2105326;28;20657;-69
2021/06/26 04:01:17;;;;;;;8.70;6.65;;;18.00;97.60;;;;;;2105192;28;20141;-70
2021/06/26 04:02:17;;;;;;;9.52;7.10;;;18.00;97.60;;;;;;2105602;28;20572;-70
2021/06/26 04:03:18;;;;;;;11.70;7.97;;;18.00;97.60;;;;;;2105569;28;20104;-69
2021/06/26 04:04:22;;;;;;;8.50;7.50;;;18.00;97.40;;;;;;2104729;28;20028;-70
2021/06/26 04:05:22;;;;;;;11.07;7.57;;;18.00;97.50;;;;;;2105728;28;20489;-69
2021/06/26 04:06:23;;;;;;;7.43;6.63;;;18.00;97.50;;;;;;2111317;28;20036;-69
2021/06/26 04:07:23;;;;;;;7.93;6.93;;;18.10;97.50;;;;;;2113988;28;20047;-69
2021/06/26 04:08:24;;;;;;;8.05;7.25;;;18.10;97.60;;;;;;2105265;28;20071;-69
2021/06/26 04:09:25;;;;;;;14.05;8.40;;;18.10;97.50;;;;;;2105364;28;20039;-70
2021/06/26 04:10:27;;;;;;;12.20;8.60;;;18.10;97.20;;;;;;2114562;28;20035;-70
2021/06/26 04:11:27;;;;;;;13.05;8.38;;;18.10;97.10;;;;;;2104714;28;20044;-69
2021/06/26 04:12:28;;;;;;;10.88;7.35;;;18.10;97.20;;;;;;2097720;28;20031;-69
2021/06/26 04:13:28;;;;;;;8.15;7.25;;;18.10;97.20;;;;;;2105824;28;20027;-69
2021/06/26 04:14:29;;;;;;;7.82;7.03;;;18.10;97.20;;;;;;2106174;28;20027;-69
2021/06/26 04:15:30;;;;;;;9.18;7.03;;;18.10;97.20;;;;;;2106347;28;20024;-69
2021/06/26 04:16:31;;;;;;;8.00;6.80;;;18.10;97.20;;;;;;2106551;28;20077;-69
2021/06/26 04:17:32;;;;;;;12.75;7.32;;;18.10;97.10;;;;;;2106650;28;20032;-69
2021/06/26 04:18:33;;;;;;;11.07;7.55;;;18.20;97.00;;;;;;2106592;28;20051;-69
2021/06/26 04:19:33;;;;;;;9.00;7.57;;;18.20;97.00;;;;;;2106095;28;20755;-69
2021/06/26 04:20:34;;;;;;;8.68;7.22;;;18.20;97.00;;;;;;2097163;28;20392;-70
2021/06/26 04:21:35;;;;;;;11.38;7.70;;;18.20;97.00;;;;;;2105799;28;20070;-69
2021/06/26 04:22:36;;;;;;;9.52;7.10;;;18.10;96.90;;;;;;2114801;28;20039;-69
2021/06/26 04:23:36;;;;;;;9.88;7.78;;;18.20;97.00;;;;;;2114676;28;20051;-69
2021/06/26 04:24:37;;;;;;;12.45;7.90;;;18.20;97.00;;;;;;2105640;28;20136;-69
2021/06/26 04:25:37;;;;;;;9.77;8.00;;;18.20;97.00;;;;;;2105792;28;20055;-69
2021/06/26 04:26:38;;;;;;;11.10;7.55;;;18.10;97.00;;;;;;2105981;28;20024;-69
2021/06/26 04:27:38;;;;;;;7.78;6.97;;;18.20;97.20;;;;;;2105741;28;20032;-69
2021/06/26 04:28:39;;;;;;;8.95;7.05;;;18.20;97.30;;;;;;2105566;28;20024;-70
2021/06/26 04:29:40;;;;;;;8.27;7.20;;;18.20;97.40;;;;;;2114814;28;20510;-70
2021/06/26 04:30:40;;;;;;;9.65;7.32;;;18.20;97.40;;;;;;2114225;28;20031;-69
2021/06/26 04:31:41;;;;;;;7.93;7.05;;;18.20;97.40;;;;;;2114869;28;20103;-69
2021/06/26 04:32:42;;;;;;;8.70;7.80;;;18.20;97.40;;;;;;2114677;28;20479;-69
2021/06/26 04:33:43;;;;;;;13.02;9.27;;;18.30;97.30;;;;;;2114840;28;20106;-69
2021/06/26 04:34:43;;;;;;;10.80;8.05;;;18.30;97.30;;;;;;2114202;28;20011;-69
2021/06/26 04:35:44;;;;;;;8.70;7.78;;;18.30;97.10;;;;;;2100920;28;20500;-69
2021/06/26 04:36:46;;;;;;;11.60;8.32;;;18.30;96.90;;;;;;2094413;28;20021;-69
2021/06/26 04:37:47;;;;;;;16.88;9.95;;;18.30;97.00;;;;;;2105913;28;20044;-70
2021/06/26 04:38:47;;;;;;;9.23;8.20;;;18.30;96.70;;;;;;2109034;28;20028;-70
2021/06/26 04:39:48;;;;;;;13.57;8.55;;;18.40;96.80;;;;;;2105563;28;20032;-69
2021/06/26 04:40:51;;;;;;;11.98;8.10;;;18.40;96.70;;;;;;2105408;28;20098;-69
2021/06/26 04:41:51;;;;;;;13.40;8.75;;;18.40;96.50;;;;;;2106450;28;20111;-69
2021/06/26 04:42:53;;;;;;;11.52;8.25;;;18.40;96.40;;;;;;2105989;28;20032;-70
2021/06/26 04:43:53;;;;;;;12.30;8.23;;;18.50;96.40;;;;;;2112914;28;20023;-69
2021/06/26 04:44:55;;;;;;;9.90;8.20;;;18.40;96.30;;;;;;2114250;28;20482;-69
2021/06/26 04:45:55;;;;;;;9.02;7.35;;;18.50;96.20;;;;;;2114675;28;20024;-69
2021/06/26 04:46:56;;;;;;;8.98;7.32;;;18.50;96.20;;;;;;2114598;28;20020;-69
2021/06/26 04:48:03;;;;;;;10.10;7.28;;;18.50;96.20;;;;;;2114843;28;20122;-69
2021/06/26 04:49:06;;;;;;;12.45;6.95;;;18.50;96.20;;;;;;2105821;28;20112;-69
2021/06/26 04:50:08;;;;;;;9.73;8.48;;;18.50;96.00;;;;;;2105944;28;20031;-69
2021/06/26 04:51:09;;;;;;;11.95;8.02;;;18.50;96.10;;;;;;2114303;28;20016;-69
2021/06/26 04:52:10;;;;;;;9.30;7.93;;;18.50;95.90;;;;;;2105724;28;20028;-69
2021/06/26 04:53:10;;;;;;;10.20;7.20;;;18.50;95.90;;;;;;2105938;28;20060;-69
2021/06/26 04:54:11;;;;;;;8.80;7.90;;;18.60;95.90;;;;;;2105822;28;20806;-70
2021/06/26 04:55:13;;;;;;;9.15;7.10;;;18.60;95.80;;;;;;2105550;28;20039;-69
2021/06/26 04:56:13;;;;;;;9.15;6.88;;;18.60;95.90;;;;;;2114748;28;20111;-69
2021/06/26 04:57:14;;;;;;;9.52;7.30;;;18.60;95.80;;;;;;2106273;28;20031;-70
2021/06/26 04:58:14;;;;;;;7.75;7.05;;;18.60;95.70;;;;;;2098094;28;20391;-69
2021/06/26 04:59:15;;;;;;;8.43;7.25;;;18.60;95.60;;;;;;2105677;28;20024;-69
2021/06/26 05:00:16;;;;;;;12.60;8.75;;;18.60;95.50;;;;;;2106006;28;20127;-70
2021/06/26 05:01:17;;;;;;;9.85;7.25;;;18.60;95.50;;;;;;2105592;28;20449;-70
2021/06/26 05:02:18;;;;;;;8.68;7.07;;;18.60;95.50;;;;;;2106366;28;20135;-69
2021/06/26 05:03:22;;;;;;;9.20;7.60;;;18.60;95.40;;;;;;2097881;28;20505;-70
2021/06/26 05:04:22;;;;;;;8.48;7.47;;;18.70;95.60;;;;;;2105714;28;20036;-69
2021/06/26 05:05:23;;;;;;;12.18;9.13;;;18.70;95.60;;;;;;2106672;28;20036;-69
2021/06/26 05:06:24;;;;;;;9.57;8.38;;;18.60;95.20;;;;;;2114561;28;20024;-70
2021/06/26 05:07:24;;;;;;;9.18;7.93;;;18.60;95.60;;;;;;2105457;28;20515;-69
2021/06/26 05:08:25;;;;;;;10.40;8.15;;;18.60;95.30;;;;;;2096825;28;20122;-69
2021/06/26 05:09:26;;;;;;;8.50;7.28;;;18.70;95.30;;;;;;2105570;28;20060;-69
2021/06/26 05:10:26;;;;;;;9.40;7.93;;;18.70;95.30;;;;;;2105632;28;20082;-69
2021/06/26 05:11:27;;;;;;;9.43;7.13;;;18.70;95.30;;;;;;2096498;28;20093;-69
2021/06/26 05:12:27;;;;;;;9.27;7.82;;;18.80;95.20;;;;;;2105411;28;20036;-69
2021/06/26 05:13:28;;;;;;;11.35;8.07;;;18.80;95.10;;;;;;2106761;28;20028;-69
2021/06/26 05:14:29;;;;;;;13.20;8.98;;;18.90;95.00;;;;;;2114244;28;20027;-69
2021/06/26 05:15:30;;;;;;;11.20;8.05;;;18.90;94.90;;;;;;2105486;28;20020;-70